CST,Max TemperatureF,Mean TemperatureF,Min TemperatureF,Max Dew PointF,MeanDew PointF,Min DewpointF,Max Humidity, Mean Humidity, Min Humidity, Max Sea Level PressureIn, Mean Sea Level PressureIn, Min Sea Level PressureIn, Max VisibilityMiles, Mean VisibilityMiles, Min VisibilityMiles, Max Wind SpeedMPH, Mean Wind SpeedMPH, Max Gust SpeedMPH,PrecipitationIn, CloudCover, Events, WindDirDegrees
2013-1-1,77,66,55,65,58,49,88,80,54,30.11,30.00,29.94,10,6,0,14,4,23,0.14,7,Fog-Rain,228
2013-1-2,62,55,48,54,45,40,83,72,53,30.18,30.09,29.98,10,10,7,12,8,,0.00,7,Rain,14
2013-1-3,48,44,37,41,38,29,83,77,66,30.33,30.23,30.17,10,6,4,12,6,,0.28,6,Rain,11
2013-1-4,59,46,34,33,28,21,75,56,23,30.40,30.35,30.31,10,10,6,8,4,,0.00,0,,32
2013-1-5,55,46,37,40,31,23,76,52,29,30.37,30.32,30.23,10,10,10,8,3,,0.00,3,,97
2013-1-6,55,50,43,43,39,36,82,66,51,30.28,30.23,30.18,10,10,7,8,4,,0.01,6,Rain,36
2013-1-7,62,50,37,36,34,29,82,60,29,30.33,30.27,30.23,10,10,8,15,5,,0.00,0,,102
2013-1-8,64,55,46,52,44,36,71,64,55,30.29,30.23,30.20,10,10,10,10,6,24,0.00,6,,111
2013-1-9,70,65,60,61,58,52,88,78,68,30.31,30.27,30.21,10,7,4,12,8,,0.02,8,Rain,122
2013-1-10,81,72,64,66,63,59,88,78,52,30.31,30.25,30.11,10,5,1,12,7,23,0.04,7,Rain,149
2013-1-11,79,72,64,65,63,59,84,72,57,30.18,30.13,30.08,10,9,4,10,5,21,0.00,6,,201
2013-1-12,79,72,66,65,62,57,88,73,47,30.16,30.08,30.02,10,8,2,13,4,20,0.00,6,,192
2013-1-13,79,74,68,67,64,63,84,76,60,30.05,30.02,29.98,10,9,5,13,5,21,0.00,8,Rain,185
2013-1-14,80,68,55,68,64,52,88,77,61,30.12,30.07,30.02,10,8,1,10,6,21,0.07,7,Rain,214
2013-1-15,81,68,55,70,63,52,94,81,58,30.08,30.01,29.94,10,5,0,12,4,20,0.56,8,Fog-Rain,188
2013-1-16,71,61,51,66,56,46,88,85,82,30.01,29.97,29.92,10,6,1,12,5,,0.75,8,Rain,350
2013-1-17,50,44,39,46,38,32,87,78,65,30.28,30.07,29.96,10,6,2,20,12,28,0.02,7,Rain,308
2013-1-18,61,48,36,35,32,29,83,60,30,30.51,30.41,30.30,10,10,6,12,7,18,0.00,0,,40
2013-1-19,61,48,35,46,36,29,83,62,39,30.42,30.32,30.24,10,10,10,6,1,,0.00,4,,110
2013-1-20,68,54,41,44,40,35,85,65,33,30.25,30.18,30.12,10,9,2,8,1,,0.00,0,,5
2013-1-21,68,52,37,41,37,32,82,57,32,30.20,30.15,30.09,10,10,8,12,2,18,0.00,0,,357
2013-1-22,59,48,37,32,27,20,73,50,24,30.36,30.30,30.20,10,10,10,10,4,16,0.00,0,,14
2013-1-23,66,50,35,46,37,29,82,61,34,30.43,30.34,30.28,10,9,5,7,2,,0.00,4,,244
2013-1-24,73,62,51,52,49,44,86,66,46,30.32,30.28,30.23,10,8,3,16,6,18,0.00,2,,317
2013-1-25,72,62,51,52,49,42,88,66,47,30.30,30.22,30.14,10,8,2,12,4,18,0.00,3,,215
2013-1-26,71,63,55,57,54,46,84,71,57,30.27,30.21,30.16,10,7,3,9,4,,0.00,6,,322
2013-1-27,73,62,50,50,44,34,69,53,34,30.34,30.29,30.26,10,10,8,8,4,,0.00,3,,122
2013-1-28,73,66,59,58,55,49,88,75,57,30.35,30.27,30.19,10,6,0,9,4,,0.00,5,Fog-Rain,153
2013-1-29,79,69,59,67,60,55,88,77,56,30.19,30.10,29.91,10,5,0,14,5,25,0.02,6,Fog-Rain,166
2013-1-30,78,63,46,70,59,32,83,77,56,30.05,29.76,29.64,10,6,0,29,12,46,1.14,7,Rain-Thunderstorm,265
2013-1-31,57,47,37,33,27,21,77,49,24,30.30,30.20,30.07,10,10,10,18,9,25,0.00,0,,340